sensor_id;sensor_type;location;lat;lon;timestamp;temperature;humidity
64652;HTU21D;51062;45.120;37.660;2023-11-21T00:00:13;4.95;92.79
64652;HTU21D;51062;45.120;37.660;2023-11-21T00:02:39;4.95;92.85
64652;HTU21D;51062;45.120;37.660;2023-11-21T00:05:07;4.96;92.85
64652;HTU21D;51062;45.120;37.660;2023-11-21T00:07:33;4.97;92.89
64652;HTU21D;51062;45.120;37.660;2023-11-21T00:09:59;4.96;92.82
64652;HTU21D;51062;45.120;37.660;2023-11-21T00:12:25;4.94;92.85
64652;HTU21D;51062;45.120;37.660;2023-11-21T00:14:51;4.95;92.86
64652;HTU21D;51062;45.120;37.660;2023-11-21T00:17:17;4.95;92.84
64652;HTU21D;51062;45.120;37.660;2023-11-21T00:19:43;4.94;92.85
64652;HTU21D;51062;45.120;37.660;2023-11-21T00:22:09;4.94;92.95
64652;HTU21D;51062;45.120;37.660;2023-11-21T00:24:35;4.95;92.98
64652;HTU21D;51062;45.120;37.660;2023-11-21T00:27:01;4.96;92.98
64652;HTU21D;51062;45.120;37.660;2023-11-21T00:29:27;4.96;92.98
64652;HTU21D;51062;45.120;37.660;2023-11-21T00:31:53;4.96;93.01
64652;HTU21D;51062;45.120;37.660;2023-11-21T00:34:19;4.94;92.96
64652;HTU21D;51062;45.120;37.660;2023-11-21T00:36:45;4.94;92.98
64652;HTU21D;51062;45.120;37.660;2023-11-21T00:39:11;4.93;92.98
64652;HTU21D;51062;45.120;37.660;2023-11-21T00:41:37;4.94;92.98
64652;HTU21D;51062;45.120;37.660;2023-11-21T00:44:03;4.92;93.01
64652;HTU21D;51062;45.120;37.660;2023-11-21T00:46:29;4.90;92.98
64652;HTU21D;51062;45.120;37.660;2023-11-21T00:48:55;4.90;93.03
64652;HTU21D;51062;45.120;37.660;2023-11-21T00:51:21;4.89;93.09
64652;HTU21D;51062;45.120;37.660;2023-11-21T00:53:47;4.87;93.07
64652;HTU21D;51062;45.120;37.660;2023-11-21T00:56:14;4.87;93.04
64652;HTU21D;51062;45.120;37.660;2023-11-21T00:58:41;4.86;93.07
64652;HTU21D;51062;45.120;37.660;2023-11-21T01:01:15;4.84;93.10
64652;HTU21D;51062;45.120;37.660;2023-11-21T01:03:41;4.83;93.08
64652;HTU21D;51062;45.120;37.660;2023-11-21T01:06:07;4.81;93.11
64652;HTU21D;51062;45.120;37.660;2023-11-21T01:08:34;4.81;93.12
64652;HTU21D;51062;45.120;37.660;2023-11-21T01:11:01;4.82;93.13
64652;HTU21D;51062;45.120;37.660;2023-11-21T01:13:27;4.81;93.11
64652;HTU21D;51062;45.120;37.660;2023-11-21T01:15:54;4.81;93.09
64652;HTU21D;51062;45.120;37.660;2023-11-21T01:18:19;4.79;93.08
64652;HTU21D;51062;45.120;37.660;2023-11-21T01:20:45;4.78;93.11
64652;HTU21D;51062;45.120;37.660;2023-11-21T01:23:13;4.77;93.16
64652;HTU21D;51062;45.120;37.660;2023-11-21T01:25:38;4.78;93.20
64652;HTU21D;51062;45.120;37.660;2023-11-21T01:28:04;4.79;93.23
64652;HTU21D;51062;45.120;37.660;2023-11-21T01:30:31;4.79;93.28
64652;HTU21D;51062;45.120;37.660;2023-11-21T01:32:58;4.81;93.27
64652;HTU21D;51062;45.120;37.660;2023-11-21T01:35:24;4.80;93.27
64652;HTU21D;51062;45.120;37.660;2023-11-21T01:37:52;4.81;93.28
64652;HTU21D;51062;45.120;37.660;2023-11-21T01:40:19;4.82;93.33
64652;HTU21D;51062;45.120;37.660;2023-11-21T01:42:44;4.84;93.33
64652;HTU21D;51062;45.120;37.660;2023-11-21T01:45:12;4.83;93.34
64652;HTU21D;51062;45.120;37.660;2023-11-21T01:47:38;4.84;93.37
64652;HTU21D;51062;45.120;37.660;2023-11-21T01:50:09;4.84;93.36
64652;HTU21D;51062;45.120;37.660;2023-11-21T01:52:38;4.84;93.38
64652;HTU21D;51062;45.120;37.660;2023-11-21T01:55:05;4.86;93.37
64652;HTU21D;51062;45.120;37.660;2023-11-21T01:57:32;4.88;93.40
64652;HTU21D;51062;45.120;37.660;2023-11-21T01:59:58;4.88;93.37
64652;HTU21D;51062;45.120;37.660;2023-11-21T02:02:26;4.88;93.37
64652;HTU21D;51062;45.120;37.660;2023-11-21T02:04:52;4.86;93.36
64652;HTU21D;51062;45.120;37.660;2023-11-21T02:07:18;4.86;93.39
64652;HTU21D;51062;45.120;37.660;2023-11-21T02:09:45;4.82;93.43
64652;HTU21D;51062;45.120;37.660;2023-11-21T02:12:10;4.83;93.46
64652;HTU21D;51062;45.120;37.660;2023-11-21T02:14:36;4.83;93.46
64652;HTU21D;51062;45.120;37.660;2023-11-21T02:17:02;4.83;93.49
64652;HTU21D;51062;45.120;37.660;2023-11-21T02:19:30;4.83;93.52
64652;HTU21D;51062;45.120;37.660;2023-11-21T02:21:58;4.84;93.53
64652;HTU21D;51062;45.120;37.660;2023-11-21T02:24:30;4.86;93.58
64652;HTU21D;51062;45.120;37.660;2023-11-21T02:26:56;4.86;93.58
64652;HTU21D;51062;45.120;37.660;2023-11-21T02:29:22;4.84;93.59
64652;HTU21D;51062;45.120;37.660;2023-11-21T02:31:53;4.84;93.58
64652;HTU21D;51062;45.120;37.660;2023-11-21T02:34:21;4.86;93.59
64652;HTU21D;51062;45.120;37.660;2023-11-21T02:36:47;4.86;93.59
64652;HTU21D;51062;45.120;37.660;2023-11-21T02:39:16;4.88;93.60
64652;HTU21D;51062;45.120;37.660;2023-11-21T02:41:43;4.87;93.59
64652;HTU21D;51062;45.120;37.660;2023-11-21T02:44:09;4.87;93.59
64652;HTU21D;51062;45.120;37.660;2023-11-21T02:46:35;4.88;93.56
64652;HTU21D;51062;45.120;37.660;2023-11-21T02:49:05;4.88;93.55
64652;HTU21D;51062;45.120;37.660;2023-11-21T02:51:36;4.89;93.56
64652;HTU21D;51062;45.120;37.660;2023-11-21T02:54:03;4.91;93.60
64652;HTU21D;51062;45.120;37.660;2023-11-21T02:56:33;4.92;93.57
64652;HTU21D;51062;45.120;37.660;2023-11-21T02:58:59;4.91;93.57
64652;HTU21D;51062;45.120;37.660;2023-11-21T03:01:26;4.94;93.58
64652;HTU21D;51062;45.120;37.660;2023-11-21T03:03:53;4.96;93.57
64652;HTU21D;51062;45.120;37.660;2023-11-21T03:06:19;4.96;93.57
64652;HTU21D;51062;45.120;37.660;2023-11-21T03:08:45;4.98;93.54
64652;HTU21D;51062;45.120;37.660;2023-11-21T03:11:11;4.98;93.52
64652;HTU21D;51062;45.120;37.660;2023-11-21T03:13:41;5.00;93.49
64652;HTU21D;51062;45.120;37.660;2023-11-21T03:16:10;5.00;93.48
64652;HTU21D;51062;45.120;37.660;2023-11-21T03:18:36;5.01;93.49
64652;HTU21D;51062;45.120;37.660;2023-11-21T03:21:03;5.02;93.50
64652;HTU21D;51062;45.120;37.660;2023-11-21T03:23:30;5.02;93.47
64652;HTU21D;51062;45.120;37.660;2023-11-21T03:25:55;5.01;93.50
64652;HTU21D;51062;45.120;37.660;2023-11-21T03:28:21;5.02;93.55
64652;HTU21D;51062;45.120;37.660;2023-11-21T03:30:47;5.03;93.57
64652;HTU21D;51062;45.120;37.660;2023-11-21T03:33:13;5.02;93.61
64652;HTU21D;51062;45.120;37.660;2023-11-21T03:35:39;5.05;93.65
64652;HTU21D;51062;45.120;37.660;2023-11-21T03:38:07;5.06;93.65
64652;HTU21D;51062;45.120;37.660;2023-11-21T03:40:33;5.05;93.62
64652;HTU21D;51062;45.120;37.660;2023-11-21T03:43:00;5.06;93.62
64652;HTU21D;51062;45.120;37.660;2023-11-21T03:45:26;5.05;93.63
64652;HTU21D;51062;45.120;37.660;2023-11-21T03:47:52;5.05;93.62
64652;HTU21D;51062;45.120;37.660;2023-11-21T03:50:18;5.04;93.59
64652;HTU21D;51062;45.120;37.660;2023-11-21T03:52:44;0.00;93.59
64652;HTU21D;51062;45.120;37.660;2023-11-21T03:55:10;5.05;93.62
64652;HTU21D;51062;45.120;37.660;2023-11-21T03:57:36;5.05;93.62
64652;HTU21D;51062;45.120;37.660;2023-11-21T04:00:03;5.06;93.65
64652;HTU21D;51062;45.120;37.660;2023-11-21T04:02:37;5.07;93.69
64652;HTU21D;51062;45.120;37.660;2023-11-21T04:05:03;5.09;93.69
64652;HTU21D;51062;45.120;37.660;2023-11-21T04:07:30;5.10;93.67
64652;HTU21D;51062;45.120;37.660;2023-11-21T04:09:56;5.11;93.68
64652;HTU21D;51062;45.120;37.660;2023-11-21T04:12:22;5.11;93.69
64652;HTU21D;51062;45.120;37.660;2023-11-21T04:14:48;5.12;93.70
64652;HTU21D;51062;45.120;37.660;2023-11-21T04:17:17;5.13;93.69
64652;HTU21D;51062;45.120;37.660;2023-11-21T04:19:43;5.15;93.66
64652;HTU21D;51062;45.120;37.660;2023-11-21T04:22:09;5.15;93.66
64652;HTU21D;51062;45.120;37.660;2023-11-21T04:24:35;5.16;93.66
64652;HTU21D;51062;45.120;37.660;2023-11-21T04:27:01;5.16;93.70
64652;HTU21D;51062;45.120;37.660;2023-11-21T04:29:28;5.18;93.69
64652;HTU21D;51062;45.120;37.660;2023-11-21T04:31:54;5.18;93.68
64652;HTU21D;51062;45.120;37.660;2023-11-21T04:34:20;5.16;93.67
64652;HTU21D;51062;45.120;37.660;2023-11-21T04:36:46;5.16;93.69
64652;HTU21D;51062;45.120;37.660;2023-11-21T04:39:12;5.17;93.71
64652;HTU21D;51062;45.120;37.660;2023-11-21T04:41:38;5.16;93.69
64652;HTU21D;51062;45.120;37.660;2023-11-21T04:44:05;5.17;93.70
64652;HTU21D;51062;45.120;37.660;2023-11-21T04:46:31;5.17;93.67
64652;HTU21D;51062;45.120;37.660;2023-11-21T04:48:57;5.18;93.68
64652;HTU21D;51062;45.120;37.660;2023-11-21T04:51:23;5.16;93.69
64652;HTU21D;51062;45.120;37.660;2023-11-21T04:53:49;5.17;93.74
64652;HTU21D;51062;45.120;37.660;2023-11-21T04:56:15;5.18;93.74
64652;HTU21D;51062;45.120;37.660;2023-11-21T04:58:44;5.19;93.73
64652;HTU21D;51062;45.120;37.660;2023-11-21T05:01:10;5.19;93.72
64652;HTU21D;51062;45.120;37.660;2023-11-21T05:03:36;5.18;93.70
64652;HTU21D;51062;45.120;37.660;2023-11-21T05:06:04;5.19;93.70
64652;HTU21D;51062;45.120;37.660;2023-11-21T05:08:30;5.20;93.69
64652;HTU21D;51062;45.120;37.660;2023-11-21T05:10:56;5.19;93.73
64652;HTU21D;51062;45.120;37.660;2023-11-21T05:13:22;5.20;93.76
64652;HTU21D;51062;45.120;37.660;2023-11-21T05:15:55;5.21;93.78
64652;HTU21D;51062;45.120;37.660;2023-11-21T05:18:24;5.21;93.75
64652;HTU21D;51062;45.120;37.660;2023-11-21T05:20:52;5.23;93.79
64652;HTU21D;51062;45.120;37.660;2023-11-21T05:23:19;5.23;93.80
64652;HTU21D;51062;45.120;37.660;2023-11-21T05:25:45;5.23;93.82
64652;HTU21D;51062;45.120;37.660;2023-11-21T05:28:12;5.23;93.82
64652;HTU21D;51062;45.120;37.660;2023-11-21T05:30:38;5.25;93.79
64652;HTU21D;51062;45.120;37.660;2023-11-21T05:33:06;5.26;93.78
64652;HTU21D;51062;45.120;37.660;2023-11-21T05:35:33;5.26;93.80
64652;HTU21D;51062;45.120;37.660;2023-11-21T05:37:58;5.27;93.82
64652;HTU21D;51062;45.120;37.660;2023-11-21T05:40:24;5.28;93.81
64652;HTU21D;51062;45.120;37.660;2023-11-21T05:42:55;5.30;93.82
64652;HTU21D;51062;45.120;37.660;2023-11-21T05:45:21;5.30;93.83
64652;HTU21D;51062;45.120;37.660;2023-11-21T05:47:47;5.32;93.82
64652;HTU21D;51062;45.120;37.660;2023-11-21T05:50:14;5.33;93.79
64652;HTU21D;51062;45.120;37.660;2023-11-21T05:52:40;5.33;93.78
64652;HTU21D;51062;45.120;37.660;2023-11-21T05:55:06;5.34;93.72
64652;HTU21D;51062;45.120;37.660;2023-11-21T05:57:33;5.33;93.73
64652;HTU21D;51062;45.120;37.660;2023-11-21T06:00:08;5.34;93.78
64652;HTU21D;51062;45.120;37.660;2023-11-21T06:02:53;0.00;93.78
64652;HTU21D;51062;45.120;37.660;2023-11-21T06:05:20;5.33;93.75
64652;HTU21D;51062;45.120;37.660;2023-11-21T06:07:49;5.34;93.78
64652;HTU21D;51062;45.120;37.660;2023-11-21T06:10:15;5.34;93.78
64652;HTU21D;51062;45.120;37.660;2023-11-21T06:12:43;5.33;93.78
64652;HTU21D;51062;45.120;37.660;2023-11-21T06:15:09;5.33;93.77
64652;HTU21D;51062;45.120;37.660;2023-11-21T06:17:39;5.33;93.75
64652;HTU21D;51062;45.120;37.660;2023-11-21T06:20:05;5.33;93.72
64652;HTU21D;51062;45.120;37.660;2023-11-21T06:22:36;5.32;93.73
64652;HTU21D;51062;45.120;37.660;2023-11-21T06:25:02;5.33;93.81
64652;HTU21D;51062;45.120;37.660;2023-11-21T06:27:31;5.33;93.82
64652;HTU21D;51062;45.120;37.660;2023-11-21T06:29:57;5.33;93.86
64652;HTU21D;51062;45.120;37.660;2023-11-21T06:32:23;5.33;93.91
64652;HTU21D;51062;45.120;37.660;2023-11-21T06:34:48;5.33;93.95
64652;HTU21D;51062;45.120;37.660;2023-11-21T06:37:15;5.34;94.01
64652;HTU21D;51062;45.120;37.660;2023-11-21T06:39:41;5.35;94.04
64652;HTU21D;51062;45.120;37.660;2023-11-21T06:42:07;5.37;94.05
64652;HTU21D;51062;45.120;37.660;2023-11-21T06:44:32;5.39;94.08
64652;HTU21D;51062;45.120;37.660;2023-11-21T06:46:59;5.41;94.11
64652;HTU21D;51062;45.120;37.660;2023-11-21T06:49:25;5.42;94.12
64652;HTU21D;51062;45.120;37.660;2023-11-21T06:51:51;5.42;94.16
64652;HTU21D;51062;45.120;37.660;2023-11-21T06:54:17;5.46;94.21
64652;HTU21D;51062;45.120;37.660;2023-11-21T06:56:43;5.47;94.20
64652;HTU21D;51062;45.120;37.660;2023-11-21T06:59:09;5.46;94.19
64652;HTU21D;51062;45.120;37.660;2023-11-21T07:01:36;5.47;94.20
64652;HTU21D;51062;45.120;37.660;2023-11-21T07:04:05;5.47;94.20
64652;HTU21D;51062;45.120;37.660;2023-11-21T07:06:32;5.48;94.20
64652;HTU21D;51062;45.120;37.660;2023-11-21T07:08:58;5.48;94.20
64652;HTU21D;51062;45.120;37.660;2023-11-21T07:11:24;5.48;94.20
64652;HTU21D;51062;45.120;37.660;2023-11-21T07:13:50;5.49;94.21
64652;HTU21D;51062;45.120;37.660;2023-11-21T07:16:18;5.50;94.29
64652;HTU21D;51062;45.120;37.660;2023-11-21T07:18:44;5.53;94.40
64652;HTU21D;51062;45.120;37.660;2023-11-21T07:21:10;5.54;94.36
64652;HTU21D;51062;45.120;37.660;2023-11-21T07:23:38;5.53;94.31
64652;HTU21D;51062;45.120;37.660;2023-11-21T07:26:03;5.52;94.34
64652;HTU21D;51062;45.120;37.660;2023-11-21T07:28:34;5.55;94.37
64652;HTU21D;51062;45.120;37.660;2023-11-21T07:31:01;5.55;94.40
64652;HTU21D;51062;45.120;37.660;2023-11-21T07:33:27;5.59;94.44
64652;HTU21D;51062;45.120;37.660;2023-11-21T07:35:53;5.60;94.49
64652;HTU21D;51062;45.120;37.660;2023-11-21T07:38:19;5.62;94.49
64652;HTU21D;51062;45.120;37.660;2023-11-21T07:40:45;5.62;94.46
64652;HTU21D;51062;45.120;37.660;2023-11-21T07:43:11;5.61;94.43
64652;HTU21D;51062;45.120;37.660;2023-11-21T07:45:36;5.60;94.41
64652;HTU21D;51062;45.120;37.660;2023-11-21T07:48:02;5.60;94.40
64652;HTU21D;51062;45.120;37.660;2023-11-21T07:50:30;5.61;94.43
64652;HTU21D;51062;45.120;37.660;2023-11-21T07:52:57;5.62;94.46
64652;HTU21D;51062;45.120;37.660;2023-11-21T07:55:23;5.64;94.47
64652;HTU21D;51062;45.120;37.660;2023-11-21T07:57:50;5.67;94.52
64652;HTU21D;51062;45.120;37.660;2023-11-21T08:00:16;5.69;94.56
64652;HTU21D;51062;45.120;37.660;2023-11-21T08:02:42;5.71;94.54
64652;HTU21D;51062;45.120;37.660;2023-11-21T08:05:08;5.74;94.53
64652;HTU21D;51062;45.120;37.660;2023-11-21T08:07:34;5.71;94.51
64652;HTU21D;51062;45.120;37.660;2023-11-21T08:10:00;5.72;94.55
64652;HTU21D;51062;45.120;37.660;2023-11-21T08:12:26;5.76;94.63
64652;HTU21D;51062;45.120;37.660;2023-11-21T08:14:53;5.80;94.66
64652;HTU21D;51062;45.120;37.660;2023-11-21T08:17:19;5.86;94.78
64652;HTU21D;51062;45.120;37.660;2023-11-21T08:19:46;5.93;94.89
64652;HTU21D;51062;45.120;37.660;2023-11-21T08:22:15;6.01;94.96
64652;HTU21D;51062;45.120;37.660;2023-11-21T08:24:41;6.10;95.04
64652;HTU21D;51062;45.120;37.660;2023-11-21T08:27:07;6.19;95.14
64652;HTU21D;51062;45.120;37.660;2023-11-21T08:29:33;6.27;95.21
64652;HTU21D;51062;45.120;37.660;2023-11-21T08:32:00;6.34;95.25
64652;HTU21D;51062;45.120;37.660;2023-11-21T08:34:25;6.36;95.26
64652;HTU21D;51062;45.120;37.660;2023-11-21T08:36:51;6.39;95.30
64652;HTU21D;51062;45.120;37.660;2023-11-21T08:39:17;6.43;95.31
64652;HTU21D;51062;45.120;37.660;2023-11-21T08:41:44;6.45;95.30
64652;HTU21D;51062;45.120;37.660;2023-11-21T08:44:11;6.48;95.26
64652;HTU21D;51062;45.120;37.660;2023-11-21T08:46:37;6.44;95.24
64652;HTU21D;51062;45.120;37.660;2023-11-21T08:49:04;6.46;95.26
64652;HTU21D;51062;45.120;37.660;2023-11-21T08:51:31;6.51;95.29
64652;HTU21D;51062;45.120;37.660;2023-11-21T08:53:57;6.53;95.30
64652;HTU21D;51062;45.120;37.660;2023-11-21T08:56:26;6.55;95.29
64652;HTU21D;51062;45.120;37.660;2023-11-21T08:58:52;6.53;95.28
64652;HTU21D;51062;45.120;37.660;2023-11-21T09:01:18;6.54;95.26
64652;HTU21D;51062;45.120;37.660;2023-11-21T09:03:44;6.53;95.27
64652;HTU21D;51062;45.120;37.660;2023-11-21T09:06:11;6.55;95.30
64652;HTU21D;51062;45.120;37.660;2023-11-21T09:08:37;6.60;95.36
64652;HTU21D;51062;45.120;37.660;2023-11-21T09:11:03;6.67;95.39
64652;HTU21D;51062;45.120;37.660;2023-11-21T09:13:29;6.74;95.39
64652;HTU21D;51062;45.120;37.660;2023-11-21T09:15:55;6.79;95.41
64652;HTU21D;51062;45.120;37.660;2023-11-21T09:18:21;6.88;95.49
64652;HTU21D;51062;45.120;37.660;2023-11-21T09:20:47;7.00;95.49
64652;HTU21D;51062;45.120;37.660;2023-11-21T09:23:13;7.12;95.48
64652;HTU21D;51062;45.120;37.660;2023-11-21T09:25:39;7.28;95.42
64652;HTU21D;51062;45.120;37.660;2023-11-21T09:28:05;7.56;95.17
64652;HTU21D;51062;45.120;37.660;2023-11-21T09:30:34;7.90;94.98
64652;HTU21D;51062;45.120;37.660;2023-11-21T09:33:01;8.17;94.90
64652;HTU21D;51062;45.120;37.660;2023-11-21T09:35:27;8.44;94.79
64652;HTU21D;51062;45.120;37.660;2023-11-21T09:37:53;8.56;94.69
64652;HTU21D;51062;45.120;37.660;2023-11-21T09:40:22;8.63;94.80
64652;HTU21D;51062;45.120;37.660;2023-11-21T09:42:50;8.64;94.92
64652;HTU21D;51062;45.120;37.660;2023-11-21T09:45:18;8.62;95.07
64652;HTU21D;51062;45.120;37.660;2023-11-21T09:47:47;8.58;95.27
64652;HTU21D;51062;45.120;37.660;2023-11-21T09:50:14;8.56;95.46
64652;HTU21D;51062;45.120;37.660;2023-11-21T09:52:54;8.59;95.55
64652;HTU21D;51062;45.120;37.660;2023-11-21T09:55:21;8.58;95.59
64652;HTU21D;51062;45.120;37.660;2023-11-21T09:57:47;8.57;95.66
64652;HTU21D;51062;45.120;37.660;2023-11-21T10:00:16;8.51;95.72
64652;HTU21D;51062;45.120;37.660;2023-11-21T10:02:43;8.43;95.78
64652;HTU21D;51062;45.120;37.660;2023-11-21T10:05:10;8.36;95.87
64652;HTU21D;51062;45.120;37.660;2023-11-21T10:07:37;8.30;95.86
64652;HTU21D;51062;45.120;37.660;2023-11-21T10:10:05;8.13;95.68
64652;HTU21D;51062;45.120;37.660;2023-11-21T10:12:31;7.93;95.57
64652;HTU21D;51062;45.120;37.660;2023-11-21T10:14:58;7.75;95.49
64652;HTU21D;51062;45.120;37.660;2023-11-21T10:17:26;7.63;95.43
64652;HTU21D;51062;45.120;37.660;2023-11-21T10:19:55;7.46;95.19
64652;HTU21D;51062;45.120;37.660;2023-11-21T10:22:23;7.33;95.07
64652;HTU21D;51062;45.120;37.660;2023-11-21T10:24:49;7.22;94.98
64652;HTU21D;51062;45.120;37.660;2023-11-21T10:27:16;7.15;95.05
64652;HTU21D;51062;45.120;37.660;2023-11-21T10:29:41;7.12;95.14
64652;HTU21D;51062;45.120;37.660;2023-11-21T10:32:07;7.12;95.30
64652;HTU21D;51062;45.120;37.660;2023-11-21T10:34:33;7.18;95.40
64652;HTU21D;51062;45.120;37.660;2023-11-21T10:37:07;7.27;95.52
64652;HTU21D;51062;45.120;37.660;2023-11-21T10:39:36;7.39;95.56
64652;HTU21D;51062;45.120;37.660;2023-11-21T10:42:02;7.43;95.57
64652;HTU21D;51062;45.120;37.660;2023-11-21T10:44:28;7.48;95.62
64652;HTU21D;51062;45.120;37.660;2023-11-21T10:46:54;7.55;95.68
64652;HTU21D;51062;45.120;37.660;2023-11-21T10:49:25;7.59;95.77
64652;HTU21D;51062;45.120;37.660;2023-11-21T10:51:52;7.61;95.81
64652;HTU21D;51062;45.120;37.660;2023-11-21T10:54:22;7.70;95.91
64652;HTU21D;51062;45.120;37.660;2023-11-21T10:56:50;7.76;95.93
64652;HTU21D;51062;45.120;37.660;2023-11-21T10:59:17;7.78;95.95
64652;HTU21D;51062;45.120;37.660;2023-11-21T11:01:44;7.85;95.97
64652;HTU21D;51062;45.120;37.660;2023-11-21T11:04:11;7.94;95.94
64652;HTU21D;51062;45.120;37.660;2023-11-21T11:06:45;8.02;95.91
64652;HTU21D;51062;45.120;37.660;2023-11-21T11:09:15;8.05;95.92
64652;HTU21D;51062;45.120;37.660;2023-11-21T11:11:43;7.99;95.90
64652;HTU21D;51062;45.120;37.660;2023-11-21T11:14:10;7.77;95.65
64652;HTU21D;51062;45.120;37.660;2023-11-21T11:16:37;7.53;95.17
64652;HTU21D;51062;45.120;37.660;2023-11-21T11:19:05;7.26;94.73
64652;HTU21D;51062;45.120;37.660;2023-11-21T11:21:56;7.09;94.49
64652;HTU21D;51062;45.120;37.660;2023-11-21T11:34:41;6.65;94.10
64652;HTU21D;51062;45.120;37.660;2023-11-21T11:37:09;6.58;94.14
64652;HTU21D;51062;45.120;37.660;2023-11-21T11:39:36;6.59;94.34
64652;HTU21D;51062;45.120;37.660;2023-11-21T11:42:03;6.64;94.52
64652;HTU21D;51062;45.120;37.660;2023-11-21T11:47:27;6.59;94.30
64652;HTU21D;51062;45.120;37.660;2023-11-21T11:50:07;6.54;94.30
64652;HTU21D;51062;45.120;37.660;2023-11-21T11:52:39;6.53;94.43
64652;HTU21D;51062;45.120;37.660;2023-11-21T11:55:09;6.56;94.55
64652;HTU21D;51062;45.120;37.660;2023-11-21T11:57:39;6.61;94.65
64652;HTU21D;51062;45.120;37.660;2023-11-21T12:02:40;6.68;94.88
64652;HTU21D;51062;45.120;37.660;2023-11-21T12:05:10;6.73;94.95
64652;HTU21D;51062;45.120;37.660;2023-11-21T12:07:41;6.79;95.07
64652;HTU21D;51062;45.120;37.660;2023-11-21T12:10:07;6.87;95.17
64652;HTU21D;51062;45.120;37.660;2023-11-21T12:12:37;6.91;95.20
64652;HTU21D;51062;45.120;37.660;2023-11-21T12:15:04;6.94;95.14
64652;HTU21D;51062;45.120;37.660;2023-11-21T12:17:30;6.86;94.94
64652;HTU21D;51062;45.120;37.660;2023-11-21T12:20:03;6.79;94.84
64652;HTU21D;51062;45.120;37.660;2023-11-21T12:22:30;6.73;94.73
64652;HTU21D;51062;45.120;37.660;2023-11-21T12:24:56;6.69;94.69
64652;HTU21D;51062;45.120;37.660;2023-11-21T12:27:22;6.68;94.70
64652;HTU21D;51062;45.120;37.660;2023-11-21T12:29:48;6.68;94.69
64652;HTU21D;51062;45.120;37.660;2023-11-21T12:32:14;6.67;94.67
64652;HTU21D;51062;45.120;37.660;2023-11-21T12:34:41;6.68;94.68
64652;HTU21D;51062;45.120;37.660;2023-11-21T12:37:07;6.68;94.72
64652;HTU21D;51062;45.120;37.660;2023-11-21T12:39:32;6.68;94.75
64652;HTU21D;51062;45.120;37.660;2023-11-21T12:41:59;6.69;94.75
64652;HTU21D;51062;45.120;37.660;2023-11-21T12:44:25;6.66;94.71
64652;HTU21D;51062;45.120;37.660;2023-11-21T12:46:51;6.63;94.67
64652;HTU21D;51062;45.120;37.660;2023-11-21T12:49:18;6.61;94.63
64652;HTU21D;51062;45.120;37.660;2023-11-21T12:51:47;6.56;94.52
64652;HTU21D;51062;45.120;37.660;2023-11-21T12:54:13;6.53;94.49
64652;HTU21D;51062;45.120;37.660;2023-11-21T12:56:39;6.49;94.41
64652;HTU21D;51062;45.120;37.660;2023-11-21T12:59:05;6.43;94.36
64652;HTU21D;51062;45.120;37.660;2023-11-21T13:01:31;6.39;94.30
64652;HTU21D;51062;45.120;37.660;2023-11-21T13:03:57;6.38;94.20
64652;HTU21D;51062;45.120;37.660;2023-11-21T13:06:27;6.35;94.20
64652;HTU21D;51062;45.120;37.660;2023-11-21T13:08:56;6.34;94.14
64652;HTU21D;51062;45.120;37.660;2023-11-21T13:11:25;6.31;94.12
64652;HTU21D;51062;45.120;37.660;2023-11-21T13:13:53;6.30;94.14
64652;HTU21D;51062;45.120;37.660;2023-11-21T13:16:19;6.28;94.11
64652;HTU21D;51062;45.120;37.660;2023-11-21T13:18:46;6.29;94.08
64652;HTU21D;51062;45.120;37.660;2023-11-21T13:21:12;6.26;94.06
64652;HTU21D;51062;45.120;37.660;2023-11-21T13:23:39;6.23;94.04
64652;HTU21D;51062;45.120;37.660;2023-11-21T13:26:07;6.22;94.04
64652;HTU21D;51062;45.120;37.660;2023-11-21T13:28:34;6.21;94.01
64652;HTU21D;51062;45.120;37.660;2023-11-21T13:31:00;6.17;93.95
64652;HTU21D;51062;45.120;37.660;2023-11-21T13:33:41;6.15;93.90
64652;HTU21D;51062;45.120;37.660;2023-11-21T13:36:09;6.13;93.85
64652;HTU21D;51062;45.120;37.660;2023-11-21T13:38:35;6.12;93.75
64652;HTU21D;51062;45.120;37.660;2023-11-21T13:41:04;6.08;93.67
64652;HTU21D;51062;45.120;37.660;2023-11-21T13:43:33;6.08;93.61
64652;HTU21D;51062;45.120;37.660;2023-11-21T13:45:59;6.06;93.56
64652;HTU21D;51062;45.120;37.660;2023-11-21T13:48:36;6.05;93.52
64652;HTU21D;51062;45.120;37.660;2023-11-21T13:51:08;6.05;93.48
64652;HTU21D;51062;45.120;37.660;2023-11-21T13:53:44;6.04;93.46
64652;HTU21D;51062;45.120;37.660;2023-11-21T13:56:13;6.01;93.46
64652;HTU21D;51062;45.120;37.660;2023-11-21T13:58:43;6.00;93.49
64652;HTU21D;51062;45.120;37.660;2023-11-21T14:01:22;6.00;93.44
64652;HTU21D;51062;45.120;37.660;2023-11-21T14:03:58;5.99;93.40
64652;HTU21D;51062;45.120;37.660;2023-11-21T14:06:34;5.98;93.42
64652;HTU21D;51062;45.120;37.660;2023-11-21T14:09:05;5.98;93.46
64652;HTU21D;51062;45.120;37.660;2023-11-21T14:11:33;5.97;93.48
64652;HTU21D;51062;45.120;37.660;2023-11-21T14:13:59;5.98;93.46
64652;HTU21D;51062;45.120;37.660;2023-11-21T14:16:25;5.98;93.43
64652;HTU21D;51062;45.120;37.660;2023-11-21T14:18:51;5.98;93.42
64652;HTU21D;51062;45.120;37.660;2023-11-21T14:21:35;5.97;93.40
64652;HTU21D;51062;45.120;37.660;2023-11-21T14:24:01;5.97;93.41
64652;HTU21D;51062;45.120;37.660;2023-11-21T14:26:27;5.97;93.37
64652;HTU21D;51062;45.120;37.660;2023-11-21T14:28:54;5.97;93.37
64652;HTU21D;51062;45.120;37.660;2023-11-21T14:31:20;5.97;93.35
64652;HTU21D;51062;45.120;37.660;2023-11-21T14:33:46;5.96;93.39
64652;HTU21D;51062;45.120;37.660;2023-11-21T14:36:12;5.98;93.41
64652;HTU21D;51062;45.120;37.660;2023-11-21T14:38:38;5.97;93.46
64652;HTU21D;51062;45.120;37.660;2023-11-21T14:41:05;5.99;93.47
64652;HTU21D;51062;45.120;37.660;2023-11-21T14:43:34;5.98;93.51
64652;HTU21D;51062;45.120;37.660;2023-11-21T14:46:04;6.00;93.50
64652;HTU21D;51062;45.120;37.660;2023-11-21T14:48:34;6.01;93.43
64652;HTU21D;51062;45.120;37.660;2023-11-21T14:51:09;6.00;93.41
64652;HTU21D;51062;45.120;37.660;2023-11-21T14:53:59;6.00;93.41
64652;HTU21D;51062;45.120;37.660;2023-11-21T14:56:35;6.00;93.43
64652;HTU21D;51062;45.120;37.660;2023-11-21T14:59:03;5.99;93.46
64652;HTU21D;51062;45.120;37.660;2023-11-21T15:01:38;6.00;93.46
64652;HTU21D;51062;45.120;37.660;2023-11-21T15:04:21;6.01;93.49
64652;HTU21D;51062;45.120;37.660;2023-11-21T15:07:03;6.00;93.49
64652;HTU21D;51062;45.120;37.660;2023-11-21T15:09:29;6.01;93.49
64652;HTU21D;51062;45.120;37.660;2023-11-21T15:11:59;6.00;93.52
64652;HTU21D;51062;45.120;37.660;2023-11-21T15:14:50;6.00;93.51
64652;HTU21D;51062;45.120;37.660;2023-11-21T15:17:20;6.01;93.55
64652;HTU21D;51062;45.120;37.660;2023-11-21T15:19:50;6.02;93.57
64652;HTU21D;51062;45.120;37.660;2023-11-21T15:22:16;6.02;93.59
64652;HTU21D;51062;45.120;37.660;2023-11-21T15:24:42;6.05;93.61
64652;HTU21D;51062;45.120;37.660;2023-11-21T15:27:11;6.05;93.63
64652;HTU21D;51062;45.120;37.660;2023-11-21T15:29:38;6.06;93.64
64652;HTU21D;51062;45.120;37.660;2023-11-21T15:32:04;6.07;93.67